Terminal Aerodrome Forecast
Issued by NWS Wilmington, NC

Home | Current Version | Previous Version | Text Only | Print | Product List | Glossary On
Versions: 1 2 3 4 5 6 7 8 9 10 11 12 13 14 15 16 17 18 19 20 21
000
FTUS42 KILM 222359 CCB
TAFLBT
TAF COR
KLBT 222359Z 2300/2324 00000KT P6SM SKC
     FM230600 00000KT 5SM BR SKC
      TEMPO 2308/2312 1SM BR
     FM231300 05006KT P6SM SCT045=

USA.gov is the U.S. government's official web portal to all federal, state and local government web resources and services.